Time;durP1;ratioP1;P1;durP2;ratioP2;P2;SDS_P1;SDS_P2;PMS_P1;PMS_P2;Temp;Humidity;BMP_temperature;BMP_pressure;BME280_temperature;BME280_humidity;BME280_pressure;Samples;Min_cycle;Max_cycle;Signal;HPM_P1;HPM_P2
2022/07/11 00:01:08;;;;;;;8.40;1.80;;;;;;;17.53;85.68;102372.06;5011094;28;20030;-71
2022/07/11 00:03:34;;;;;;;9.18;1.90;;;;;;;17.50;85.38;102378.50;4995931;28;20039;-71
2022/07/11 00:05:59;;;;;;;5.10;1.50;;;;;;;17.57;85.64;102376.69;4994704;28;20030;-71
2022/07/11 00:08:25;;;;;;;11.38;1.70;;;;;;;17.51;85.67;102366.22;4995997;28;20117;-71
2022/07/11 00:10:51;;;;;;;5.70;1.60;;;;;;;17.57;85.35;102368.84;4995941;28;20034;-72
2022/07/11 00:13:16;;;;;;;3.67;1.40;;;;;;;17.55;85.76;102378.72;4996193;28;20030;-73
2022/07/11 00:15:41;;;;;;;4.15;1.52;;;;;;;17.51;85.73;102379.28;4994569;28;20026;-72
2022/07/11 00:18:07;;;;;;;3.72;1.50;;;;;;;17.57;85.68;102368.84;4995700;28;20500;-72
2022/07/11 00:20:32;;;;;;;3.15;1.48;;;;;;;17.51;85.70;102368.84;4994533;28;20023;-72
2022/07/11 00:22:57;;;;;;;4.38;1.33;;;;;;;17.48;85.90;102374.44;4995665;28;20022;-72
2022/07/11 00:25:22;;;;;;;8.27;1.88;;;;;;;17.43;86.46;102375.03;4995518;28;20118;-71
2022/07/11 00:27:48;;;;;;;6.90;1.50;;;;;;;17.41;85.96;102371.81;4995606;28;20027;-72
2022/07/11 00:30:13;;;;;;;4.72;1.48;;;;;;;17.51;85.75;102368.84;4995411;28;20034;-71
2022/07/11 00:32:38;;;;;;;11.10;2.00;;;;;;;17.46;85.83;102364.19;4995282;28;20097;-71
2022/07/11 00:35:04;;;;;;;5.05;1.35;;;;;;;17.44;86.18;102360.16;4995457;28;20533;-71
2022/07/11 00:37:30;;;;;;;6.45;1.70;;;;;;;17.34;86.46;102363.13;4994056;28;20022;-71
2022/07/11 00:39:55;;;;;;;6.95;1.83;;;;;;;17.50;85.75;102365.41;5010443;28;20485;-73
2022/07/11 00:42:20;;;;;;;4.97;1.70;;;;;;;17.54;86.06;102364.03;4994108;28;20030;-71
2022/07/11 00:44:46;;;;;;;9.93;1.63;;;;;;;17.53;85.66;102365.03;4995046;28;20492;-71
2022/07/11 00:47:11;;;;;;;5.85;1.55;;;;;;;17.64;85.32;102363.69;5010357;28;20031;-71
2022/07/11 00:49:36;;;;;;;2.25;1.40;;;;;;;17.57;85.67;102366.25;4995075;28;20101;-71
2022/07/11 00:52:02;;;;;;;4.93;1.50;;;;;;;17.52;85.88;102366.03;4995103;28;20029;-71
2022/07/11 00:54:28;;;;;;;8.75;1.50;;;;;;;17.46;85.96;102363.38;4993796;28;20080;-72
2022/07/11 00:56:54;;;;;;;7.90;1.90;;;;;;;17.43;86.41;102359.34;4993842;28;20042;-72
2022/07/11 00:59:20;;;;;;;2.30;1.20;;;;;;;17.48;86.19;102364.81;4993732;28;20030;-72
2022/07/11 01:01:45;;;;;;;7.47;2.47;;;;;;;17.53;86.27;102367.66;4993696;28;20026;-72
2022/07/11 01:04:10;;;;;;;6.30;2.20;;;;;;;17.55;85.86;102364.81;4994914;28;20375;-72
2022/07/11 01:06:36;;;;;;;5.97;1.60;;;;;;;17.51;85.55;102355.75;4995050;28;20058;-72
2022/07/11 01:09:01;;;;;;;7.15;1.95;;;;;;;17.38;85.93;102353.91;4994807;28;20496;-71
2022/07/11 01:11:27;;;;;;;4.72;1.77;;;;;;;17.33;86.36;102361.53;4994762;28;20075;-72
2022/07/11 01:13:53;;;;;;;5.63;1.60;;;;;;;17.35;86.03;102365.56;4994834;28;20033;-71
2022/07/11 01:16:21;;;;;;;4.28;1.45;;;;;;;17.32;86.13;102363.34;4994755;28;20084;-72
2022/07/11 01:18:52;;;;;;;7.53;1.70;;;;;;;17.31;86.08;102360.91;4994604;28;20030;-71
2022/07/11 01:21:22;;;;;;;4.20;1.50;;;;;;;17.27;86.71;102365.72;4994554;28;20222;-72
2022/07/11 01:23:48;;;;;;;5.57;1.48;;;;;;;17.30;86.60;102365.31;4994519;28;20120;-72
2022/07/11 01:26:16;;;;;;;3.95;1.50;;;;;;;17.25;86.42;102362.47;4993336;28;20033;-72
2022/07/11 01:28:41;;;;;;;4.78;1.50;;;;;;;17.34;86.25;102366.53;4993219;28;20104;-72
2022/07/11 01:31:07;;;;;;;5.50;1.30;;;;;;;17.22;86.71;102362.84;4994568;28;20488;-72
2022/07/11 01:33:32;;;;;;;6.97;1.63;;;;;;;17.24;86.62;102366.09;5009415;28;20184;-72
2022/07/11 01:36:01;;;;;;;5.00;1.40;;;;;;;17.34;86.35;102371.75;4994484;28;20030;-72
2022/07/11 01:38:26;;;;;;;5.53;1.83;;;;;;;17.35;86.15;102372.59;4993054;28;20038;-71
2022/07/11 01:40:51;;;;;;;7.20;1.70;;;;;;;17.34;86.04;102370.97;4992945;28;20500;-72
2022/07/11 01:43:16;;;;;;;4.57;1.35;;;;;;;17.37;86.45;102370.56;4991987;28;20501;-72
2022/07/11 01:45:42;;;;;;;7.45;1.80;;;;;;;17.32;86.08;102372.94;4994124;28;20105;-72
2022/07/11 01:48:07;;;;;;;3.58;1.48;;;;;;;17.18;86.44;102366.88;4994177;28;20026;-72
2022/07/11 01:50:32;;;;;;;7.18;1.40;;;;;;;17.14;87.07;102365.63;4994106;28;20443;-71
2022/07/11 01:52:58;;;;;;;4.97;1.67;;;;;;;17.14;87.43;102368.22;4994080;28;20014;-72
2022/07/11 01:55:23;;;;;;;4.60;1.60;;;;;;;17.20;86.87;102361.44;4994091;28;20482;-72
2022/07/11 01:57:48;;;;;;;5.38;1.70;;;;;;;17.19;86.86;102362.44;4993983;28;20061;-72
2022/07/11 02:00:13;;;;;;;5.63;1.60;;;;;;;17.09;87.42;102358.38;4993950;28;20026;-72
2022/07/11 02:02:39;;;;;;;4.55;1.90;;;;;;;17.17;87.28;102364.44;4993886;28;20026;-72
2022/07/11 02:05:05;;;;;;;9.95;1.80;;;;;;;17.21;86.94;102350.00;4993934;28;20431;-71
2022/07/11 02:10:14;;;;;;;4.30;1.52;;;;;;;17.32;87.02;102352.88;4993818;28;20572;-72
2022/07/11 02:12:40;;;;;;;6.28;1.80;;;;;;;17.34;86.44;102360.50;4992661;28;20058;-71
2022/07/11 02:15:06;;;;;;;4.78;1.90;;;;;;;17.30;86.41;102354.06;4992473;28;20065;-71
2022/07/11 02:17:31;;;;;;;5.35;1.58;;;;;;;17.27;86.66;102349.22;4992369;28;20124;-71
2022/07/11 02:19:57;;;;;;;5.05;1.45;;;;;;;17.21;86.72;102353.41;4992544;28;20026;-72
2022/07/11 02:22:22;;;;;;;10.30;1.80;;;;;;;17.24;86.64;102354.84;4993551;28;20026;-71
2022/07/11 02:24:47;;;;;;;5.55;1.60;;;;;;;17.02;87.99;102357.50;4993755;28;20394;-71
2022/07/11 02:27:13;;;;;;;3.28;1.58;;;;;;;17.13;87.34;102346.53;4993608;28;20474;-72
2022/07/11 02:29:39;;;;;;;7.03;2.00;;;;;;;17.22;87.29;102349.78;4993709;28;20034;-72
2022/07/11 02:32:05;;;;;;;7.45;1.70;;;;;;;17.28;86.90;102350.84;4993660;28;20022;-72
2022/07/11 02:34:30;;;;;;;5.25;1.60;;;;;;;17.28;86.85;102343.78;4993685;28;20058;-71
2022/07/11 02:36:55;;;;;;;5.50;1.83;;;;;;;17.13;87.38;102338.69;4993590;28;20519;-72
2022/07/11 02:39:20;;;;;;;8.15;1.80;;;;;;;17.17;87.31;102348.75;4993595;28;20076;-72
2022/07/11 02:41:46;;;;;;;6.18;1.80;;;;;;;17.25;87.32;102340.78;4993522;28;20556;-72
2022/07/11 02:44:11;;;;;;;4.78;1.70;;;;;;;17.18;87.38;102347.78;4993376;28;20058;-72
2022/07/11 02:46:36;;;;;;;7.05;1.90;;;;;;;17.16;87.24;102352.38;4993446;28;20061;-72
2022/07/11 02:49:01;;;;;;;7.78;2.10;;;;;;;17.18;87.33;102356.41;4992052;28;20026;-72
2022/07/11 02:51:27;;;;;;;7.78;2.00;;;;;;;17.14;87.56;102347.34;4993574;28;20057;-72
2022/07/11 02:53:52;;;;;;;6.10;1.80;;;;;;;17.09;87.76;102354.94;4994189;28;20080;-72
2022/07/11 02:56:18;;;;;;;8.77;2.17;;;;;;;17.08;87.97;102351.53;4996044;28;20073;-72
2022/07/11 02:58:43;;;;;;;5.15;2.10;;;;;;;17.13;87.57;102348.34;4997335;28;20029;-72
2022/07/11 03:01:08;;;;;;;3.05;2.00;;;;;;;17.19;87.58;102357.22;4995841;28;20030;-72
2022/07/11 03:03:34;;;;;;;6.82;2.35;;;;;;;17.12;87.95;102351.97;4997137;28;20031;-72
2022/07/11 03:05:59;;;;;;;5.85;2.25;;;;;;;16.99;88.23;102355.28;5012267;28;20022;-72
2022/07/11 03:08:25;;;;;;;5.80;2.15;;;;;;;16.99;88.20;102360.50;4997182;28;20101;-72
2022/07/11 03:10:50;;;;;;;7.57;2.08;;;;;;;17.02;88.32;102359.31;4995667;28;20076;-71
2022/07/11 03:13:16;;;;;;;5.18;2.10;;;;;;;16.97;88.53;102362.50;4997027;28;20022;-71
2022/07/11 03:15:42;;;;;;;4.45;1.90;;;;;;;17.06;88.49;102361.38;4995746;28;20484;-71
2022/07/11 03:18:07;;;;;;;6.30;2.20;;;;;;;16.92;88.78;102364.91;4995614;28;20073;-72
2022/07/11 03:20:32;;;;;;;4.88;2.03;;;;;;;16.89;89.17;102362.66;4996925;28;20045;-72
2022/07/11 03:22:57;;;;;;;3.50;1.80;;;;;;;16.93;88.63;102366.50;4995504;28;20027;-72
2022/07/11 03:25:23;;;;;;;4.55;2.00;;;;;;;16.90;88.75;102366.88;4996768;28;20161;-72
2022/07/11 03:27:48;;;;;;;5.85;1.92;;;;;;;16.92;88.42;102363.09;4996823;28;20018;-72
2022/07/11 03:30:14;;;;;;;4.47;1.73;;;;;;;16.97;88.37;102365.09;4996692;28;20033;-71
2022/07/11 03:32:40;;;;;;;4.93;1.90;;;;;;;16.96;88.42;102366.13;4996583;28;20486;-72
2022/07/11 03:37:51;;;;;;;5.35;2.17;;;;;;;16.90;88.52;102366.88;4996808;28;20041;-72
2022/07/11 03:40:16;;;;;;;5.05;1.75;;;;;;;16.96;89.03;102367.94;4995253;28;20545;-72
2022/07/11 03:42:42;;;;;;;5.22;2.15;;;;;;;16.99;88.48;102364.94;4996403;28;20161;-72
2022/07/11 03:45:07;;;;;;;4.55;1.90;;;;;;;16.98;88.74;102366.75;4995151;28;20081;-72
2022/07/11 03:47:33;;;;;;;6.20;1.88;;;;;;;16.93;89.12;102363.88;4996435;28;20057;-72
2022/07/11 03:49:58;;;;;;;4.53;2.08;;;;;;;16.93;89.18;102363.88;4996321;28;20026;-72
2022/07/11 03:52:23;;;;;;;5.53;2.15;;;;;;;16.97;89.14;102361.69;4995093;28;20041;-72
2022/07/11 03:54:49;;;;;;;7.15;1.80;;;;;;;16.99;89.18;102370.16;4996286;28;20061;-72
2022/07/11 03:57:14;;;;;;;5.70;1.90;;;;;;;17.06;88.65;102369.22;4994954;28;20177;-72
2022/07/11 03:59:39;;;;;;;4.65;2.10;;;;;;;16.96;89.13;102365.31;4996100;28;20394;-72
2022/07/11 04:02:05;;;;;;;3.58;2.00;;;;;;;16.97;89.45;102365.09;4996143;28;20389;-72
2022/07/11 04:04:30;;;;;;;5.13;2.25;;;;;;;16.97;89.16;102372.13;4994794;28;20052;-72
2022/07/11 04:06:55;;;;;;;3.63;1.85;;;;;;;17.04;89.39;102370.41;4995090;28;20042;-72
2022/07/11 04:09:20;;;;;;;7.07;2.25;;;;;;;16.99;88.85;102365.72;4995988;28;20026;-72
2022/07/11 04:11:46;;;;;;;6.60;2.00;;;;;;;16.98;89.39;102364.13;5010990;28;20031;-72
2022/07/11 04:14:11;;;;;;;3.78;1.90;;;;;;;16.90;89.43;102372.91;4994730;28;20069;-72
2022/07/11 04:16:36;;;;;;;4.63;1.80;;;;;;;16.83;89.82;102366.84;5010845;28;20026;-72
2022/07/11 04:19:01;;;;;;;5.20;1.77;;;;;;;16.75;90.08;102373.97;4995733;28;20359;-72
2022/07/11 04:21:27;;;;;;;4.47;1.83;;;;;;;16.71;90.59;102363.09;4994719;28;20029;-72
2022/07/11 04:23:52;;;;;;;5.30;2.10;;;;;;;16.75;91.67;102376.59;4994378;28;20076;-72
2022/07/11 04:26:18;;;;;;;4.15;1.83;;;;;;;16.74;92.29;102370.53;4995669;28;20060;-72
2022/07/11 04:28:43;;;;;;;3.88;1.80;;;;;;;16.74;93.22;102362.69;4995575;28;20026;-72
2022/07/11 04:31:10;;;;;;;4.00;1.83;;;;;;;16.66;93.64;102361.06;4994439;28;20025;-72
2022/07/11 04:33:35;;;;;;;4.03;2.00;;;;;;;16.70;93.70;102364.88;4995626;28;20141;-73
2022/07/11 04:36:02;;;;;;;4.60;1.92;;;;;;;16.60;94.77;102364.41;4994600;28;20145;-72
2022/07/11 04:38:28;;;;;;;5.97;1.90;;;;;;;16.70;94.90;102357.06;4995454;28;20453;-72
2022/07/11 04:40:53;;;;;;;8.18;2.17;;;;;;;16.73;94.15;102366.31;4995377;28;20437;-72
2022/07/11 04:43:19;;;;;;;3.97;1.98;;;;;;;16.73;94.04;102368.13;4995158;28;20087;-72
2022/07/11 04:45:44;;;;;;;7.07;2.00;;;;;;;16.80;93.26;102374.22;4995352;28;20529;-72
2022/07/11 04:48:10;;;;;;;3.40;1.92;;;;;;;16.73;93.54;102362.91;4993849;28;20033;-72
2022/07/11 04:50:35;;;;;;;3.47;2.03;;;;;;;16.93;92.80;102374.34;4995168;28;20085;-72
2022/07/11 04:53:01;;;;;;;7.38;2.08;;;;;;;16.92;92.51;102372.72;4993898;28;20509;-72
2022/07/11 04:55:26;;;;;;;4.22;1.75;;;;;;;16.83;93.66;102372.06;4993857;28;20057;-71
2022/07/11 04:57:52;;;;;;;4.88;1.85;;;;;;;16.96;93.32;102376.56;4995026;28;20033;-71
2022/07/11 05:00:18;;;;;;;5.68;1.80;;;;;;;16.93;92.57;102384.78;4995145;28;20049;-72
2022/07/11 05:02:43;;;;;;;4.22;1.52;;;;;;;17.04;92.30;102386.88;4995161;28;20089;-72
2022/07/11 05:05:09;;;;;;;4.70;1.90;;;;;;;16.92;92.64;102385.78;4994987;28;20030;-72
2022/07/11 05:07:35;;;;;;;3.53;1.77;;;;;;;17.02;92.37;102382.81;4995192;28;20026;-72
2022/07/11 05:10:01;;;;;;;4.50;1.52;;;;;;;17.05;92.52;102392.91;4993907;28;20022;-72
2022/07/11 05:12:26;;;;;;;3.78;1.60;;;;;;;17.02;91.74;102386.25;4995331;28;20030;-72
2022/07/11 05:14:51;;;;;;;3.30;1.65;;;;;;;16.89;93.02;102391.38;4994131;28;20084;-73
2022/07/11 05:17:18;;;;;;;3.58;1.77;;;;;;;16.90;92.93;102393.78;4995257;28;20030;-72
2022/07/11 05:19:44;;;;;;;4.65;1.60;;;;;;;16.95;92.92;102406.28;4993941;28;20030;-73
2022/07/11 05:22:09;;;;;;;7.00;1.83;;;;;;;16.89;93.08;102409.66;4994112;28;20390;-72
2022/07/11 05:24:34;;;;;;;6.70;1.65;;;;;;;16.95;92.81;102403.69;4993318;28;20022;-72
2022/07/11 05:27:00;;;;;;;4.50;1.40;;;;;;;16.97;92.21;102406.09;4994510;28;20030;-73
2022/07/11 05:29:25;;;;;;;3.97;1.50;;;;;;;17.04;91.78;102404.34;4994508;28;20030;-73
2022/07/11 05:31:50;;;;;;;2.38;1.40;;;;;;;17.15;92.51;102414.28;4994405;28;20045;-73
2022/07/11 05:34:16;;;;;;;3.83;1.60;;;;;;;17.21;93.84;102410.91;4994505;28;20014;-71
2022/07/11 05:36:43;;;;;;;2.60;1.35;;;;;;;17.09;94.44;102410.63;4993245;28;20026;-71
2022/07/11 05:39:08;;;;;;;3.83;1.45;;;;;;;17.19;94.75;102419.91;4993032;28;20113;-71
2022/07/11 05:41:34;;;;;;;3.28;1.40;;;;;;;17.26;94.54;102418.97;4994471;28;20054;-72
2022/07/11 05:43:59;;;;;;;2.53;1.40;;;;;;;17.32;93.73;102406.91;4993984;28;20042;-72
2022/07/11 05:46:24;;;;;;;5.32;1.20;;;;;;;17.41;92.37;102420.66;4993247;28;20033;-73
2022/07/11 05:48:49;;;;;;;2.33;1.02;;;;;;;17.55;91.52;102409.25;4994090;28;20113;-72
2022/07/11 05:51:16;;;;;;;2.83;1.02;;;;;;;18.22;89.10;102413.78;4994214;28;20034;-73
2022/07/11 05:53:41;;;;;;;2.35;1.00;;;;;;;18.01;87.74;102409.50;4992772;28;20605;-71
2022/07/11 05:56:07;;;;;;;2.58;0.82;;;;;;;17.91;88.67;102414.28;4992696;28;20117;-73
2022/07/11 05:58:32;;;;;;;2.58;0.90;;;;;;;17.85;87.18;102415.06;4994096;28;20030;-71
2022/07/11 06:00:58;;;;;;;1.63;1.00;;;;;;;17.93;86.95;102411.47;4994032;28;20053;-72
2022/07/11 06:03:23;;;;;;;1.13;0.88;;;;;;;18.03;86.06;102420.53;4993827;28;20091;-71
2022/07/11 06:05:49;;;;;;;2.45;0.80;;;;;;;18.11;84.70;102411.72;4993918;28;20084;-72
2022/07/11 06:10:58;;;;;;;2.88;1.40;;;;;;;19.56;78.98;102407.47;4994144;28;20393;-72
2022/07/11 06:13:24;;;;;;;0.65;0.50;;;;;;;22.47;65.33;102406.78;4992521;28;20026;-72
2022/07/11 06:15:49;;;;;;;1.27;0.80;;;;;;;20.64;71.53;102411.16;4993626;28;20389;-72
2022/07/11 06:18:14;;;;;;;3.35;0.80;;;;;;;20.24;74.10;102406.94;4993666;28;20026;-72
2022/07/11 06:20:39;;;;;;;0.88;0.60;;;;;;;19.53;77.12;102410.50;4992119;28;20019;-72
2022/07/11 06:23:06;;;;;;;1.38;0.60;;;;;;;18.86;78.73;102403.78;4992770;28;20034;-72
2022/07/11 06:25:31;;;;;;;0.93;0.40;;;;;;;18.56;80.44;102411.19;4991540;28;20456;-72
2022/07/11 06:27:57;;;;;;;0.52;0.50;;;;;;;18.33;82.19;102409.78;4992303;28;20125;-73
2022/07/11 06:30:22;;;;;;;0.70;0.40;;;;;;;18.36;82.05;102408.56;4999942;28;20106;-72
2022/07/11 06:32:48;;;;;;;0.90;0.32;;;;;;;18.07;83.07;102410.53;4998897;28;20018;-72
2022/07/11 06:35:13;;;;;;;0.80;0.43;;;;;;;18.18;83.59;102411.72;5000159;28;20149;-73
2022/07/11 06:37:38;;;;;;;1.27;0.50;;;;;;;18.09;83.29;102405.06;5015162;28;20093;-73
2022/07/11 06:40:09;;;;;;;1.15;0.68;;;;;;;18.11;82.99;102409.09;4998765;28;20394;-72
2022/07/11 06:42:35;;;;;;;0.70;0.47;;;;;;;18.11;84.09;102409.09;5000180;28;20033;-72
2022/07/11 06:45:00;;;;;;;3.10;0.70;;;;;;;18.04;86.60;102395.22;4999893;28;20046;-72
2022/07/11 06:47:26;;;;;;;1.15;0.75;;;;;;;17.96;87.49;102385.72;4999808;28;20500;-72
2022/07/11 06:49:51;;;;;;;1.42;0.50;;;;;;;18.12;88.88;102399.44;5000000;28;20486;-73
2022/07/11 06:52:16;;;;;;;1.42;0.70;;;;;;;18.11;88.48;102395.22;4999867;28;20107;-72
2022/07/11 06:54:42;;;;;;;2.45;0.90;;;;;;;18.21;87.45;102400.88;4998834;28;20014;-71
2022/07/11 06:57:07;;;;;;;1.98;0.50;;;;;;;18.16;85.30;102405.91;4998810;28;20521;-72
2022/07/11 06:59:32;;;;;;;1.10;0.50;;;;;;;18.38;85.17;102403.91;5014904;28;20026;-72
2022/07/11 07:01:58;;;;;;;2.13;0.47;;;;;;;18.59;84.42;102395.09;4998330;28;20113;-72
2022/07/11 07:04:24;;;;;;;1.58;0.60;;;;;;;18.26;83.76;102407.13;4999733;28;20058;-72
2022/07/11 07:06:50;;;;;;;1.27;0.55;;;;;;;18.43;82.90;102404.13;4998514;28;20119;-72
2022/07/11 07:09:15;;;;;;;1.67;0.80;;;;;;;18.55;81.84;102396.50;4998643;28;20022;-72
2022/07/11 07:11:40;;;;;;;0.80;0.47;;;;;;;18.45;81.15;102408.16;4998576;28;20041;-72
2022/07/11 07:14:06;;;;;;;0.50;0.40;;;;;;;18.57;80.64;102412.81;4998422;28;20117;-72
2022/07/11 07:16:32;;;;;;;2.85;0.57;;;;;;;18.44;81.10;102413.59;4998493;28;20481;-72
2022/07/11 07:18:57;;;;;;;0.90;0.52;;;;;;;18.75;80.25;102417.47;4998446;28;20026;-71
2022/07/11 07:21:22;;;;;;;1.88;0.60;;;;;;;18.85;79.10;102415.28;4999598;28;20026;-71
2022/07/11 07:23:48;;;;;;;1.10;0.40;;;;;;;20.30;74.51;102413.19;4999734;28;20026;-72
2022/07/11 07:26:14;;;;;;;1.23;0.70;;;;;;;22.01;67.96;102416.16;4999664;28;20026;-72
2022/07/11 07:28:39;;;;;;;1.00;0.50;;;;;;;22.59;63.93;102415.53;4998348;28;20064;-72
2022/07/11 07:31:05;;;;;;;0.98;0.38;;;;;;;21.76;66.43;102414.47;4998412;28;20025;-73
2022/07/11 07:33:31;;;;;;;0.55;0.40;;;;;;;21.44;68.06;102424.38;4999581;28;20089;-72
2022/07/11 07:35:56;;;;;;;0.98;0.45;;;;;;;21.48;66.63;102414.19;4999577;28;20430;-72
2022/07/11 07:38:21;;;;;;;5.38;0.35;;;;;;;22.05;65.96;102412.06;4999505;28;20123;-71
2022/07/11 07:40:47;;;;;;;0.20;0.20;;;;;;;22.57;62.81;102420.22;4996681;28;20027;-72
2022/07/11 07:43:12;;;;;;;0.10;0.10;;;;;;;23.17;61.36;102416.56;4996311;28;20054;-72
2022/07/11 07:45:37;;;;;;;0.57;0.20;;;;;;;22.81;61.85;102423.66;4995041;28;20057;-72
2022/07/11 07:48:03;;;;;;;1.50;0.45;;;;;;;21.95;65.27;102424.94;4995003;28;20031;-72
2022/07/11 07:50:28;;;;;;;1.55;0.50;;;;;;;21.14;68.16;102424.22;4994954;28;20030;-72
2022/07/11 07:52:54;;;;;;;1.13;0.40;;;;;;;20.69;70.41;102430.50;4994913;28;20022;-72
2022/07/11 07:55:19;;;;;;;2.63;0.60;;;;;;;20.62;70.63;102424.47;4996111;28;20035;-72
2022/07/11 07:57:44;;;;;;;0.73;0.40;;;;;;;20.95;70.78;102426.84;4994883;28;20117;-72
2022/07/11 08:02:54;;;;;;;2.22;0.50;;;;;;;21.49;67.62;102424.50;4996388;28;20563;-72
2022/07/11 08:05:20;;;;;;;1.52;0.43;;;;;;;21.94;65.35;102424.13;4996171;28;20022;-72
2022/07/11 08:07:45;;;;;;;0.28;0.28;;;;;;;22.32;63.20;102433.56;4996017;28;20030;-72
2022/07/11 08:10:11;;;;;;;0.98;0.30;;;;;;;21.85;64.29;102426.28;4994939;28;20104;-71
2022/07/11 08:12:37;;;;;;;0.65;0.40;;;;;;;21.77;66.44;102431.03;4996031;28;20057;-72
2022/07/11 08:15:02;;;;;;;4.53;0.75;;;;;;;21.09;67.23;102442.47;4995835;28;20019;-72
2022/07/11 08:17:28;;;;;;;1.65;0.60;;;;;;;20.64;69.08;102438.22;4995865;28;20105;-71
2022/07/11 08:19:53;;;;;;;2.30;0.30;;;;;;;20.78;68.20;102443.38;4995743;28;20134;-71
2022/07/11 08:22:18;;;;;;;15.93;0.82;;;;;;;20.53;70.35;102440.72;4994526;28;20073;-71
2022/07/11 08:24:44;;;;;;;0.30;0.30;;;;;;;20.58;69.30;102440.91;4995729;28;20022;-71
2022/07/11 08:27:09;;;;;;;0.65;0.35;;;;;;;20.54;69.38;102431.81;4995650;28;20026;-72
2022/07/11 08:29:35;;;;;;;1.13;0.55;;;;;;;20.28;70.26;102437.03;4994346;28;20037;-71
2022/07/11 08:32:00;;;;;;;0.88;0.40;;;;;;;20.37;69.42;102426.25;4995558;28;20532;-72
2022/07/11 08:34:25;;;;;;;0.22;0.22;;;;;;;20.66;68.89;102438.81;4994296;28;20080;-72
2022/07/11 08:36:51;;;;;;;0.47;0.20;;;;;;;20.98;67.86;102425.63;4994312;28;20081;-72
2022/07/11 08:39:16;;;;;;;0.20;0.20;;;;;;;21.28;66.14;102427.53;4994169;28;20022;-71
2022/07/11 08:41:46;;;;;;;0.93;0.45;;;;;;;21.32;65.08;102423.44;4995213;28;20041;-72
2022/07/11 08:44:12;;;;;;;1.55;0.20;;;;;;;20.96;66.94;102431.06;4994055;28;20054;-72
2022/07/11 08:46:40;;;;;;;0.47;0.22;;;;;;;21.01;67.52;102422.53;4995393;28;20050;-72
2022/07/11 08:49:06;;;;;;;0.95;0.47;;;;;;;20.88;69.41;102427.91;4993830;28;20522;-72
2022/07/11 08:51:31;;;;;;;1.13;0.43;;;;;;;20.48;70.23;102430.81;4994839;28;20026;-71
2022/07/11 08:53:57;;;;;;;2.83;0.50;;;;;;;20.60;70.78;102428.34;4995096;28;20062;-72
2022/07/11 08:56:26;;;;;;;4.43;0.90;;;;;;;20.58;71.38;102436.44;4994974;28;20026;-73
2022/07/11 08:58:53;;;;;;;3.92;0.60;;;;;;;20.58;71.28;102433.81;4995074;28;20489;-71
2022/07/11 09:01:22;;;;;;;2.63;0.50;;;;;;;20.55;71.20;102425.56;4995145;28;20022;-72
2022/07/11 09:03:49;;;;;;;1.52;0.50;;;;;;;20.75;70.44;102425.41;4994838;28;20109;-72
2022/07/11 09:06:15;;;;;;;1.67;0.55;;;;;;;20.84;69.66;102432.81;4994999;28;20027;-72
2022/07/11 09:08:40;;;;;;;1.42;0.60;;;;;;;20.64;69.79;102427.72;4994845;28;20019;-72
2022/07/11 09:11:06;;;;;;;0.60;0.40;;;;;;;20.59;71.24;102429.38;4995086;28;20041;-72
2022/07/11 09:13:32;;;;;;;0.75;0.50;;;;;;;20.63;70.45;102434.00;5009091;28;20030;-72
2022/07/11 09:16:06;;;;;;;1.45;0.70;;;;;;;20.60;70.13;102434.41;4992406;28;20496;-72
2022/07/11 09:18:34;;;;;;;2.15;0.45;;;;;;;20.82;69.79;102431.41;4994963;28;20493;-72
2022/07/11 09:26:34;;;;;;;0.85;0.50;;;;;;;20.63;69.25;102435.78;4994828;28;20093;-72
2022/07/11 09:29:00;;;;;;;3.08;0.47;;;;;;;20.56;69.86;102430.59;4994594;28;20027;-71
2022/07/11 09:31:28;;;;;;;0.70;0.50;;;;;;;20.99;68.99;102440.34;4994387;28;20467;-72
2022/07/11 09:34:26;;;;;;;2.13;0.40;;;;;;;21.17;67.77;102427.22;4993155;28;20438;-70
2022/07/11 09:36:54;;;;;;;1.63;0.43;;;;;;;21.37;66.52;102423.63;4982828;28;20041;-71
2022/07/11 09:39:22;;;;;;;1.00;0.17;;;;;;;21.18;67.25;102428.84;4994272;28;20505;-71
2022/07/11 09:41:49;;;;;;;0.52;0.50;;;;;;;21.36;67.07;102425.44;4994233;28;20101;-71
2022/07/11 09:44:20;;;;;;;1.85;0.50;;;;;;;21.30;67.20;102422.88;4994018;28;20050;-72
2022/07/11 09:46:50;;;;;;;0.52;0.32;;;;;;;21.02;67.33;102426.78;4994212;28;20026;-71
2022/07/11 09:49:29;;;;;;;0.82;0.40;;;;;;;20.87;68.04;102432.38;4994300;28;20041;-71
2022/07/11 09:51:55;;;;;;;0.75;0.30;;;;;;;20.87;67.76;102434.19;4992736;28;20066;-72
2022/07/11 09:54:20;;;;;;;0.50;0.43;;;;;;;20.72;67.55;102432.69;4992904;28;20042;-72
2022/07/11 09:56:51;;;;;;;0.88;0.47;;;;;;;20.45;68.07;102426.00;4992769;28;20504;-72
2022/07/11 09:59:18;;;;;;;1.02;0.43;;;;;;;20.67;68.76;102427.28;4993975;28;20022;-72
2022/07/11 10:01:44;;;;;;;0.20;0.20;;;;;;;21.16;66.77;102428.25;4994106;28;20031;-72
2022/07/11 10:04:10;;;;;;;0.43;0.30;;;;;;;21.57;66.43;102426.81;4991912;28;20381;-73
2022/07/11 10:06:37;;;;;;;0.40;0.30;;;;;;;21.51;65.14;102424.28;4994030;28;20495;-72
2022/07/11 10:09:07;;;;;;;0.80;0.40;;;;;;;21.69;65.14;102434.78;4993875;28;20496;-72
2022/07/11 10:11:33;;;;;;;1.65;0.38;;;;;;;21.03;65.32;102433.66;4993915;28;20022;-71
2022/07/11 10:14:03;;;;;;;4.72;0.60;;;;;;;21.63;64.10;102435.66;4993798;28;20022;-72
2022/07/11 10:16:41;;;;;;;4.63;0.50;;;;;;;21.86;63.44;102427.06;4993876;28;20033;-71
2022/07/11 10:19:12;;;;;;;1.15;0.40;;;;;;;21.61;63.70;102430.63;4993804;28;20118;-72
2022/07/11 10:21:52;;;;;;;0.85;0.40;;;;;;;21.90;63.54;102428.25;4992268;28;20026;-72
2022/07/11 10:24:22;;;;;;;0.93;0.20;;;;;;;22.07;63.55;102418.69;4993711;28;20027;-72
2022/07/11 10:27:10;;;;;;;0.75;0.35;;;;;;;21.90;62.90;102427.47;4993686;28;20034;-71
2022/07/11 10:29:44;;;;;;;1.58;0.35;;;;;;;21.96;63.46;102431.81;4992316;28;20018;-72
2022/07/11 10:32:11;;;;;;;1.33;0.30;;;;;;;22.23;62.84;102437.53;4993666;28;20494;-72
2022/07/11 10:34:37;;;;;;;1.38;0.38;;;;;;;22.19;63.33;102431.13;4993554;28;20025;-72
2022/07/11 10:37:04;;;;;;;3.90;0.52;;;;;;;22.37;63.00;102428.41;4992483;28;20389;-72
2022/07/11 10:39:37;;;;;;;0.50;0.40;;;;;;;22.34;62.58;102420.19;4993012;28;20030;-72
2022/07/11 10:42:05;;;;;;;1.45;0.47;;;;;;;22.38;62.87;102426.59;4992096;28;20441;-72
2022/07/11 10:44:54;;;;;;;0.40;0.30;;;;;;;22.47;62.96;102425.22;4991856;28;20136;-72
2022/07/11 10:47:38;;;;;;;0.98;0.50;;;;;;;22.65;60.87;102427.00;4985816;28;20038;-72
2022/07/11 10:50:30;;;;;;;0.93;0.85;;;;;;;22.13;63.27;102424.91;4992239;28;20030;-71
2022/07/11 10:52:57;;;;;;;1.13;0.55;;;;;;;22.77;61.34;102433.06;4985538;28;20038;-71
2022/07/11 10:55:35;;;;;;;0.38;0.38;;;;;;;22.83;61.03;102437.41;4993378;28;20030;-72
2022/07/11 10:58:24;;;;;;;0.73;0.40;;;;;;;22.35;62.03;102435.72;4993525;28;20030;-72
2022/07/11 11:01:09;;;;;;;1.05;0.30;;;;;;;22.67;61.33;102425.72;4993538;28;20034;-72
2022/07/11 11:03:34;;;;;;;0.50;0.40;;;;;;;22.65;62.00;102427.00;4991865;28;20061;-72
2022/07/11 11:05:59;;;;;;;3.40;0.60;;;;;;;22.96;61.61;102431.16;4993276;28;20030;-72
2022/07/11 11:08:35;;;;;;;0.50;0.35;;;;;;;22.79;61.34;102438.09;5008356;28;20033;-71
2022/07/11 11:11:05;;;;;;;1.38;0.55;;;;;;;22.88;61.01;102429.63;4993323;28;20390;-71
2022/07/11 11:13:33;;;;;;;2.72;0.57;;;;;;;22.83;61.64;102441.88;4993316;28;20080;-72
2022/07/11 11:16:00;;;;;;;1.23;0.45;;;;;;;22.98;60.66;102444.88;4995514;28;20026;-72
2022/07/11 11:18:25;;;;;;;0.43;0.43;;;;;;;23.16;60.79;102444.78;4997042;28;20034;-71
2022/07/11 11:21:02;;;;;;;2.03;0.40;;;;;;;22.83;60.66;102441.88;4997009;28;20366;-72
2022/07/11 11:23:39;;;;;;;1.35;0.50;;;;;;;23.06;61.20;102446.38;4996694;28;20030;-72
2022/07/11 11:26:12;;;;;;;0.73;0.40;;;;;;;22.93;61.21;102445.56;4995717;28;20081;-71
2022/07/11 11:28:53;;;;;;;1.00;0.50;;;;;;;22.89;61.74;102439.13;4995461;28;20018;-72
2022/07/11 11:31:20;;;;;;;0.82;0.40;;;;;;;23.07;61.71;102443.50;4996842;28;20052;-72
2022/07/11 11:33:47;;;;;;;0.50;0.30;;;;;;;22.96;61.04;102441.69;4995465;28;20478;-72
2022/07/11 11:36:16;;;;;;;1.77;0.50;;;;;;;23.37;59.66;102435.44;4996560;28;20023;-71
2022/07/11 11:38:42;;;;;;;0.57;0.43;;;;;;;23.14;60.75;102435.50;4995246;28;20085;-72